sensor_id;sensor_type;location;lat;lon;timestamp;P1;durP1;ratioP1;P2;durP2;ratioP2
46729;SDS011;32476;50.002;11.854;2023-04-03T00:03:12;5.37;;;2.67;;
46729;SDS011;32476;50.002;11.854;2023-04-03T00:05:38;5.67;;;2.87;;
46729;SDS011;32476;50.002;11.854;2023-04-03T00:08:04;7.63;;;3.23;;
46729;SDS011;32476;50.002;11.854;2023-04-03T00:10:34;8.37;;;3.40;;
46729;SDS011;32476;50.002;11.854;2023-04-03T00:13:01;7.00;;;3.50;;
46729;SDS011;32476;50.002;11.854;2023-04-03T00:15:28;4.83;;;2.87;;
46729;SDS011;32476;50.002;11.854;2023-04-03T00:17:55;6.07;;;3.23;;
46729;SDS011;32476;50.002;11.854;2023-04-03T00:20:22;7.37;;;3.87;;
46729;SDS011;32476;50.002;11.854;2023-04-03T00:22:48;7.90;;;4.27;;
46729;SDS011;32476;50.002;11.854;2023-04-03T00:25:16;8.83;;;4.60;;
46729;SDS011;32476;50.002;11.854;2023-04-03T00:27:42;10.87;;;4.43;;
46729;SDS011;32476;50.002;11.854;2023-04-03T00:30:08;9.17;;;4.83;;
46729;SDS011;32476;50.002;11.854;2023-04-03T00:32:38;10.90;;;5.30;;
46729;SDS011;32476;50.002;11.854;2023-04-03T00:35:04;34.03;;;17.00;;
46729;SDS011;32476;50.002;11.854;2023-04-03T00:37:30;6.80;;;4.77;;
46729;SDS011;32476;50.002;11.854;2023-04-03T00:39:58;8.60;;;4.80;;
46729;SDS011;32476;50.002;11.854;2023-04-03T00:42:24;8.37;;;5.27;;
46729;SDS011;32476;50.002;11.854;2023-04-03T00:47:24;15.83;;;6.93;;
46729;SDS011;32476;50.002;11.854;2023-04-03T00:49:50;26.20;;;12.10;;
46729;SDS011;32476;50.002;11.854;2023-04-03T00:52:19;19.20;;;10.63;;
46729;SDS011;32476;50.002;11.854;2023-04-03T00:54:50;50.00;;;22.77;;
46729;SDS011;32476;50.002;11.854;2023-04-03T00:57:19;10.93;;;6.60;;
46729;SDS011;32476;50.002;11.854;2023-04-03T00:59:49;17.20;;;6.80;;
46729;SDS011;32476;50.002;11.854;2023-04-03T01:02:19;9.30;;;5.33;;
46729;SDS011;32476;50.002;11.854;2023-04-03T01:04:45;8.97;;;5.63;;
46729;SDS011;32476;50.002;11.854;2023-04-03T01:07:15;8.07;;;5.53;;
46729;SDS011;32476;50.002;11.854;2023-04-03T01:10:07;8.47;;;5.43;;
46729;SDS011;32476;50.002;11.854;2023-04-03T01:12:38;9.47;;;5.07;;
46729;SDS011;32476;50.002;11.854;2023-04-03T01:15:06;10.90;;;6.00;;
46729;SDS011;32476;50.002;11.854;2023-04-03T01:17:39;8.77;;;5.50;;
46729;SDS011;32476;50.002;11.854;2023-04-03T01:23:21;11.57;;;7.60;;
46729;SDS011;32476;50.002;11.854;2023-04-03T01:25:59;10.83;;;6.67;;
46729;SDS011;32476;50.002;11.854;2023-04-03T01:28:26;23.20;;;11.13;;
46729;SDS011;32476;50.002;11.854;2023-04-03T01:33:32;7.90;;;4.63;;
46729;SDS011;32476;50.002;11.854;2023-04-03T01:35:58;8.23;;;5.50;;
46729;SDS011;32476;50.002;11.854;2023-04-03T01:38:24;8.60;;;5.07;;
46729;SDS011;32476;50.002;11.854;2023-04-03T01:40:52;11.43;;;5.90;;
46729;SDS011;32476;50.002;11.854;2023-04-03T01:43:18;16.03;;;5.47;;
46729;SDS011;32476;50.002;11.854;2023-04-03T01:45:43;9.67;;;5.50;;
46729;SDS011;32476;50.002;11.854;2023-04-03T01:48:11;9.87;;;5.97;;
46729;SDS011;32476;50.002;11.854;2023-04-03T01:50:37;10.60;;;5.20;;
46729;SDS011;32476;50.002;11.854;2023-04-03T01:53:03;8.30;;;5.73;;
46729;SDS011;32476;50.002;11.854;2023-04-03T01:55:30;8.13;;;5.27;;
46729;SDS011;32476;50.002;11.854;2023-04-03T01:57:56;8.57;;;5.47;;
46729;SDS011;32476;50.002;11.854;2023-04-03T02:00:22;7.27;;;5.43;;
46729;SDS011;32476;50.002;11.854;2023-04-03T02:02:49;5.40;;;4.50;;
46729;SDS011;32476;50.002;11.854;2023-04-03T02:05:15;8.90;;;5.40;;
46729;SDS011;32476;50.002;11.854;2023-04-03T02:07:41;9.37;;;5.20;;
46729;SDS011;32476;50.002;11.854;2023-04-03T02:10:09;8.87;;;5.33;;
46729;SDS011;32476;50.002;11.854;2023-04-03T02:12:35;8.00;;;5.33;;
46729;SDS011;32476;50.002;11.854;2023-04-03T02:15:01;13.10;;;4.83;;
46729;SDS011;32476;50.002;11.854;2023-04-03T02:17:29;12.80;;;5.37;;
46729;SDS011;32476;50.002;11.854;2023-04-03T02:19:55;8.53;;;4.63;;
46729;SDS011;32476;50.002;11.854;2023-04-03T02:22:20;13.40;;;4.87;;
46729;SDS011;32476;50.002;11.854;2023-04-03T02:24:48;8.80;;;4.43;;
46729;SDS011;32476;50.002;11.854;2023-04-03T02:27:14;10.23;;;4.80;;
46729;SDS011;32476;50.002;11.854;2023-04-03T02:29:39;7.40;;;4.20;;
46729;SDS011;32476;50.002;11.854;2023-04-03T02:32:07;10.20;;;4.70;;
46729;SDS011;32476;50.002;11.854;2023-04-03T02:34:32;11.37;;;4.57;;
46729;SDS011;32476;50.002;11.854;2023-04-03T02:36:58;7.30;;;4.40;;
46729;SDS011;32476;50.002;11.854;2023-04-03T02:39:26;8.77;;;4.33;;
46729;SDS011;32476;50.002;11.854;2023-04-03T02:41:52;8.80;;;4.83;;
46729;SDS011;32476;50.002;11.854;2023-04-03T02:44:18;9.40;;;4.30;;
46729;SDS011;32476;50.002;11.854;2023-04-03T02:46:45;7.53;;;4.63;;
46729;SDS011;32476;50.002;11.854;2023-04-03T02:49:11;11.00;;;4.80;;
46729;SDS011;32476;50.002;11.854;2023-04-03T02:51:37;11.83;;;4.73;;
46729;SDS011;32476;50.002;11.854;2023-04-03T02:54:04;9.23;;;4.40;;
46729;SDS011;32476;50.002;11.854;2023-04-03T02:56:30;7.27;;;4.10;;
46729;SDS011;32476;50.002;11.854;2023-04-03T02:58:56;9.17;;;3.63;;
46729;SDS011;32476;50.002;11.854;2023-04-03T03:01:23;8.10;;;4.00;;
46729;SDS011;32476;50.002;11.854;2023-04-03T03:03:49;6.70;;;4.20;;
46729;SDS011;32476;50.002;11.854;2023-04-03T03:06:16;13.43;;;4.20;;
46729;SDS011;32476;50.002;11.854;2023-04-03T03:08:44;8.27;;;3.80;;
46729;SDS011;32476;50.002;11.854;2023-04-03T03:11:10;7.27;;;3.90;;
46729;SDS011;32476;50.002;11.854;2023-04-03T03:13:36;7.50;;;4.13;;
46729;SDS011;32476;50.002;11.854;2023-04-03T03:16:04;8.37;;;4.60;;
46729;SDS011;32476;50.002;11.854;2023-04-03T03:18:30;7.97;;;4.67;;
46729;SDS011;32476;50.002;11.854;2023-04-03T03:20:56;13.67;;;4.70;;
46729;SDS011;32476;50.002;11.854;2023-04-03T03:23:25;11.20;;;5.67;;
46729;SDS011;32476;50.002;11.854;2023-04-03T03:25:56;13.13;;;4.90;;
46729;SDS011;32476;50.002;11.854;2023-04-03T03:28:22;34.37;;;16.57;;
46729;SDS011;32476;50.002;11.854;2023-04-03T03:30:51;10.87;;;5.20;;
46729;SDS011;32476;50.002;11.854;2023-04-03T03:33:17;9.53;;;6.20;;
46729;SDS011;32476;50.002;11.854;2023-04-03T03:35:43;7.30;;;4.97;;
46729;SDS011;32476;50.002;11.854;2023-04-03T03:38:11;15.03;;;4.93;;
46729;SDS011;32476;50.002;11.854;2023-04-03T03:40:37;16.90;;;6.10;;
46729;SDS011;32476;50.002;11.854;2023-04-03T03:43:03;12.90;;;5.10;;
46729;SDS011;32476;50.002;11.854;2023-04-03T03:45:30;8.10;;;5.10;;
46729;SDS011;32476;50.002;11.854;2023-04-03T03:47:56;8.27;;;5.33;;
46729;SDS011;32476;50.002;11.854;2023-04-03T03:50:22;9.90;;;5.67;;
46729;SDS011;32476;50.002;11.854;2023-04-03T03:52:49;10.70;;;5.67;;
46729;SDS011;32476;50.002;11.854;2023-04-03T03:55:15;11.87;;;5.90;;
46729;SDS011;32476;50.002;11.854;2023-04-03T03:57:41;19.03;;;4.93;;
46729;SDS011;32476;50.002;11.854;2023-04-03T04:00:09;12.30;;;4.77;;
46729;SDS011;32476;50.002;11.854;2023-04-03T04:02:35;9.23;;;4.77;;
46729;SDS011;32476;50.002;11.854;2023-04-03T04:05:01;6.73;;;4.57;;
46729;SDS011;32476;50.002;11.854;2023-04-03T04:07:29;7.53;;;4.43;;
46729;SDS011;32476;50.002;11.854;2023-04-03T04:09:54;7.03;;;4.50;;
46729;SDS011;32476;50.002;11.854;2023-04-03T04:12:20;9.40;;;4.43;;
46729;SDS011;32476;50.002;11.854;2023-04-03T04:14:48;12.50;;;6.03;;
46729;SDS011;32476;50.002;11.854;2023-04-03T04:17:13;10.80;;;5.20;;
46729;SDS011;32476;50.002;11.854;2023-04-03T04:19:39;7.00;;;4.57;;
46729;SDS011;32476;50.002;11.854;2023-04-03T04:22:07;8.80;;;5.30;;
46729;SDS011;32476;50.002;11.854;2023-04-03T04:24:33;7.53;;;4.53;;
46729;SDS011;32476;50.002;11.854;2023-04-03T04:26:58;13.87;;;4.83;;
46729;SDS011;32476;50.002;11.854;2023-04-03T04:29:26;8.60;;;4.90;;
46729;SDS011;32476;50.002;11.854;2023-04-03T04:31:52;11.57;;;5.27;;
46729;SDS011;32476;50.002;11.854;2023-04-03T04:34:17;8.23;;;5.10;;
46729;SDS011;32476;50.002;11.854;2023-04-03T04:36:45;10.87;;;5.10;;
46729;SDS011;32476;50.002;11.854;2023-04-03T04:39:11;9.90;;;4.93;;
46729;SDS011;32476;50.002;11.854;2023-04-03T04:41:36;8.67;;;4.40;;
46729;SDS011;32476;50.002;11.854;2023-04-03T04:44:04;10.47;;;5.03;;
46729;SDS011;32476;50.002;11.854;2023-04-03T04:46:30;9.37;;;4.80;;
46729;SDS011;32476;50.002;11.854;2023-04-03T04:48:56;15.20;;;5.13;;
46729;SDS011;32476;50.002;11.854;2023-04-03T04:51:24;8.70;;;5.23;;
46729;SDS011;32476;50.002;11.854;2023-04-03T04:53:50;7.50;;;4.57;;
46729;SDS011;32476;50.002;11.854;2023-04-03T04:56:16;6.73;;;4.97;;
46729;SDS011;32476;50.002;11.854;2023-04-03T04:58:43;10.37;;;5.50;;
46729;SDS011;32476;50.002;11.854;2023-04-03T05:01:10;12.17;;;4.87;;
46729;SDS011;32476;50.002;11.854;2023-04-03T05:03:36;9.53;;;5.23;;
46729;SDS011;32476;50.002;11.854;2023-04-03T05:06:03;9.73;;;5.00;;
46729;SDS011;32476;50.002;11.854;2023-04-03T05:08:30;10.80;;;5.30;;
46729;SDS011;32476;50.002;11.854;2023-04-03T05:10:56;10.50;;;5.80;;
46729;SDS011;32476;50.002;11.854;2023-04-03T05:13:24;9.73;;;5.90;;
46729;SDS011;32476;50.002;11.854;2023-04-03T05:15:50;13.63;;;6.23;;
46729;SDS011;32476;50.002;11.854;2023-04-03T05:18:15;12.77;;;5.80;;
46729;SDS011;32476;50.002;11.854;2023-04-03T05:20:43;10.53;;;5.60;;
46729;SDS011;32476;50.002;11.854;2023-04-03T05:23:09;10.23;;;5.27;;
46729;SDS011;32476;50.002;11.854;2023-04-03T05:25:39;14.70;;;6.87;;
46729;SDS011;32476;50.002;11.854;2023-04-03T05:28:07;9.17;;;5.70;;
46729;SDS011;32476;50.002;11.854;2023-04-03T05:30:32;13.30;;;5.20;;
46729;SDS011;32476;50.002;11.854;2023-04-03T05:32:58;8.83;;;5.03;;
46729;SDS011;32476;50.002;11.854;2023-04-03T05:35:26;10.87;;;6.27;;
46729;SDS011;32476;50.002;11.854;2023-04-03T05:37:52;12.27;;;5.00;;
46729;SDS011;32476;50.002;11.854;2023-04-03T05:40:17;10.37;;;5.40;;
46729;SDS011;32476;50.002;11.854;2023-04-03T05:42:45;9.90;;;5.80;;
46729;SDS011;32476;50.002;11.854;2023-04-03T05:45:11;7.77;;;5.10;;
46729;SDS011;32476;50.002;11.854;2023-04-03T05:47:37;11.83;;;6.50;;
46729;SDS011;32476;50.002;11.854;2023-04-03T05:50:05;10.43;;;5.83;;
46729;SDS011;32476;50.002;11.854;2023-04-03T05:52:38;11.33;;;5.37;;
46729;SDS011;32476;50.002;11.854;2023-04-03T05:55:09;10.37;;;5.03;;
46729;SDS011;32476;50.002;11.854;2023-04-03T05:57:35;13.53;;;6.03;;
46729;SDS011;32476;50.002;11.854;2023-04-03T06:00:04;10.47;;;6.17;;
46729;SDS011;32476;50.002;11.854;2023-04-03T06:02:35;23.23;;;9.63;;
46729;SDS011;32476;50.002;11.854;2023-04-03T06:05:03;13.87;;;6.13;;
46729;SDS011;32476;50.002;11.854;2023-04-03T06:07:30;10.23;;;5.17;;
46729;SDS011;32476;50.002;11.854;2023-04-03T06:09:58;10.80;;;5.17;;
46729;SDS011;32476;50.002;11.854;2023-04-03T06:12:25;15.93;;;6.60;;
46729;SDS011;32476;50.002;11.854;2023-04-03T06:14:52;13.00;;;5.97;;
46729;SDS011;32476;50.002;11.854;2023-04-03T06:17:19;20.70;;;8.67;;
46729;SDS011;32476;50.002;11.854;2023-04-03T06:19:45;18.37;;;7.80;;
46729;SDS011;32476;50.002;11.854;2023-04-03T06:22:11;16.87;;;6.50;;
46729;SDS011;32476;50.002;11.854;2023-04-03T06:24:47;18.70;;;9.10;;
46729;SDS011;32476;50.002;11.854;2023-04-03T06:27:14;14.73;;;6.67;;
46729;SDS011;32476;50.002;11.854;2023-04-03T06:29:41;17.43;;;7.53;;
46729;SDS011;32476;50.002;11.854;2023-04-03T06:32:08;15.13;;;6.37;;
46729;SDS011;32476;50.002;11.854;2023-04-03T06:34:46;10.33;;;5.40;;
46729;SDS011;32476;50.002;11.854;2023-04-03T06:37:15;13.23;;;5.33;;
46729;SDS011;32476;50.002;11.854;2023-04-03T06:39:42;11.17;;;5.50;;
46729;SDS011;32476;50.002;11.854;2023-04-03T06:42:08;12.10;;;4.60;;
46729;SDS011;32476;50.002;11.854;2023-04-03T06:44:36;7.53;;;4.73;;
46729;SDS011;32476;50.002;11.854;2023-04-03T06:47:02;7.40;;;4.63;;
46729;SDS011;32476;50.002;11.854;2023-04-03T06:49:33;21.83;;;8.60;;
46729;SDS011;32476;50.002;11.854;2023-04-03T06:52:03;20.10;;;9.67;;
46729;SDS011;32476;50.002;11.854;2023-04-03T06:54:31;18.57;;;8.03;;
46729;SDS011;32476;50.002;11.854;2023-04-03T06:56:57;13.90;;;5.47;;
46729;SDS011;32476;50.002;11.854;2023-04-03T06:59:25;10.67;;;6.27;;
46729;SDS011;32476;50.002;11.854;2023-04-03T07:01:51;12.27;;;6.10;;
46729;SDS011;32476;50.002;11.854;2023-04-03T07:04:17;7.73;;;4.77;;
46729;SDS011;32476;50.002;11.854;2023-04-03T07:06:47;15.87;;;6.97;;
46729;SDS011;32476;50.002;11.854;2023-04-03T07:09:14;13.60;;;7.43;;
46729;SDS011;32476;50.002;11.854;2023-04-03T07:11:40;11.87;;;5.50;;
46729;SDS011;32476;50.002;11.854;2023-04-03T07:14:07;10.13;;;4.53;;
46729;SDS011;32476;50.002;11.854;2023-04-03T07:16:34;11.37;;;5.50;;
46729;SDS011;32476;50.002;11.854;2023-04-03T07:21:56;6.77;;;4.13;;
46729;SDS011;32476;50.002;11.854;2023-04-03T07:24:22;11.00;;;5.33;;
46729;SDS011;32476;50.002;11.854;2023-04-03T07:26:52;10.33;;;4.33;;
46729;SDS011;32476;50.002;11.854;2023-04-03T07:29:20;10.03;;;4.53;;
46729;SDS011;32476;50.002;11.854;2023-04-03T07:31:46;6.67;;;4.23;;
46729;SDS011;32476;50.002;11.854;2023-04-03T07:34:12;8.37;;;4.17;;
46729;SDS011;32476;50.002;11.854;2023-04-03T07:36:40;6.47;;;3.90;;
46729;SDS011;32476;50.002;11.854;2023-04-03T07:39:05;19.70;;;7.80;;
46729;SDS011;32476;50.002;11.854;2023-04-03T07:41:33;10.63;;;4.03;;
46729;SDS011;32476;50.002;11.854;2023-04-03T07:44:00;11.73;;;4.43;;
46729;SDS011;32476;50.002;11.854;2023-04-03T07:46:29;6.53;;;4.00;;
46729;SDS011;32476;50.002;11.854;2023-04-03T07:48:55;9.23;;;5.00;;
46729;SDS011;32476;50.002;11.854;2023-04-03T07:51:24;8.23;;;4.10;;
46729;SDS011;32476;50.002;11.854;2023-04-03T07:53:52;8.20;;;4.07;;
46729;SDS011;32476;50.002;11.854;2023-04-03T07:56:18;7.67;;;4.03;;
46729;SDS011;32476;50.002;11.854;2023-04-03T07:58:45;6.47;;;4.30;;
46729;SDS011;32476;50.002;11.854;2023-04-03T08:04:04;14.10;;;6.47;;
46729;SDS011;32476;50.002;11.854;2023-04-03T08:06:32;12.03;;;5.77;;
46729;SDS011;32476;50.002;11.854;2023-04-03T08:09:04;7.67;;;3.90;;
46729;SDS011;32476;50.002;11.854;2023-04-03T08:14:30;10.63;;;5.17;;
46729;SDS011;32476;50.002;11.854;2023-04-03T08:17:01;7.17;;;3.67;;
46729;SDS011;32476;50.002;11.854;2023-04-03T08:19:28;7.27;;;2.90;;
46729;SDS011;32476;50.002;11.854;2023-04-03T08:21:54;6.40;;;2.70;;
46729;SDS011;32476;50.002;11.854;2023-04-03T08:24:21;6.37;;;3.60;;
46729;SDS011;32476;50.002;11.854;2023-04-03T08:26:49;4.27;;;2.57;;
46729;SDS011;32476;50.002;11.854;2023-04-03T08:29:15;5.30;;;2.93;;
46729;SDS011;32476;50.002;11.854;2023-04-03T08:31:43;4.40;;;2.93;;
46729;SDS011;32476;50.002;11.854;2023-04-03T08:34:09;7.60;;;2.60;;
46729;SDS011;32476;50.002;11.854;2023-04-03T08:36:36;6.63;;;2.83;;
46729;SDS011;32476;50.002;11.854;2023-04-03T08:39:04;6.03;;;2.40;;
46729;SDS011;32476;50.002;11.854;2023-04-03T08:49:47;5.47;;;2.50;;
46729;SDS011;32476;50.002;11.854;2023-04-03T08:52:36;4.87;;;2.30;;
46729;SDS011;32476;50.002;11.854;2023-04-03T08:57:48;4.60;;;2.30;;
46729;SDS011;32476;50.002;11.854;2023-04-03T09:00:22;4.23;;;2.63;;
46729;SDS011;32476;50.002;11.854;2023-04-03T09:02:54;3.70;;;2.33;;
46729;SDS011;32476;50.002;11.854;2023-04-03T09:14:02;8.57;;;3.50;;
46729;SDS011;32476;50.002;11.854;2023-04-03T09:16:56;4.20;;;2.70;;
46729;SDS011;32476;50.002;11.854;2023-04-03T09:22:47;5.90;;;2.90;;
46729;SDS011;32476;50.002;11.854;2023-04-03T09:25:12;5.70;;;3.73;;
46729;SDS011;32476;50.002;11.854;2023-04-03T09:27:42;7.57;;;2.83;;
46729;SDS011;32476;50.002;11.854;2023-04-03T09:30:15;6.43;;;2.43;;
46729;SDS011;32476;50.002;11.854;2023-04-03T09:32:46;4.07;;;2.40;;
46729;SDS011;32476;50.002;11.854;2023-04-03T09:35:24;4.73;;;2.70;;
46729;SDS011;32476;50.002;11.854;2023-04-03T09:43:04;6.87;;;2.70;;
46729;SDS011;32476;50.002;11.854;2023-04-03T09:45:53;6.77;;;2.90;;
46729;SDS011;32476;50.002;11.854;2023-04-03T09:48:23;7.83;;;2.97;;
46729;SDS011;32476;50.002;11.854;2023-04-03T09:53:29;2.83;;;2.00;;
46729;SDS011;32476;50.002;11.854;2023-04-03T09:56:18;8.33;;;2.43;;
46729;SDS011;32476;50.002;11.854;2023-04-03T09:58:51;5.73;;;3.30;;
46729;SDS011;32476;50.002;11.854;2023-04-03T10:01:35;3.43;;;2.30;;
46729;SDS011;32476;50.002;11.854;2023-04-03T10:04:16;6.13;;;2.80;;
46729;SDS011;32476;50.002;11.854;2023-04-03T10:06:46;5.03;;;2.20;;
46729;SDS011;32476;50.002;11.854;2023-04-03T10:11:57;3.70;;;2.67;;
46729;SDS011;32476;50.002;11.854;2023-04-03T10:14:30;5.47;;;2.63;;
46729;SDS011;32476;50.002;11.854;2023-04-03T10:17:12;5.63;;;2.60;;
46729;SDS011;32476;50.002;11.854;2023-04-03T10:20:09;5.33;;;2.70;;
46729;SDS011;32476;50.002;11.854;2023-04-03T10:28:02;4.93;;;2.57;;
46729;SDS011;32476;50.002;11.854;2023-04-03T10:30:36;5.97;;;2.10;;
46729;SDS011;32476;50.002;11.854;2023-04-03T10:36:17;6.17;;;2.27;;
46729;SDS011;32476;50.002;11.854;2023-04-03T10:42:02;4.17;;;2.30;;
46729;SDS011;32476;50.002;11.854;2023-04-03T10:47:30;4.80;;;2.50;;
46729;SDS011;32476;50.002;11.854;2023-04-03T10:52:57;6.63;;;2.87;;
46729;SDS011;32476;50.002;11.854;2023-04-03T10:55:37;3.17;;;2.30;;
46729;SDS011;32476;50.002;11.854;2023-04-03T10:58:14;4.60;;;2.87;;
46729;SDS011;32476;50.002;11.854;2023-04-03T11:00:54;4.90;;;2.43;;
46729;SDS011;32476;50.002;11.854;2023-04-03T11:03:36;5.37;;;2.80;;
46729;SDS011;32476;50.002;11.854;2023-04-03T11:06:09;6.10;;;2.47;;
46729;SDS011;32476;50.002;11.854;2023-04-03T11:11:24;8.23;;;2.57;;
46729;SDS011;32476;50.002;11.854;2023-04-03T11:14:01;2.63;;;1.87;;
46729;SDS011;32476;50.002;11.854;2023-04-03T11:16:39;3.97;;;2.20;;
46729;SDS011;32476;50.002;11.854;2023-04-03T11:22:03;6.30;;;2.67;;
46729;SDS011;32476;50.002;11.854;2023-04-03T11:24:37;3.67;;;2.47;;
46729;SDS011;32476;50.002;11.854;2023-04-03T11:27:08;3.40;;;2.20;;
46729;SDS011;32476;50.002;11.854;2023-04-03T11:29:49;5.40;;;2.60;;
46729;SDS011;32476;50.002;11.854;2023-04-03T11:32:29;4.83;;;2.53;;
46729;SDS011;32476;50.002;11.854;2023-04-03T11:35:17;7.43;;;2.37;;
46729;SDS011;32476;50.002;11.854;2023-04-03T11:37:45;4.40;;;2.10;;
46729;SDS011;32476;50.002;11.854;2023-04-03T11:40:24;4.17;;;2.50;;
46729;SDS011;32476;50.002;11.854;2023-04-03T11:42:54;7.67;;;2.17;;
46729;SDS011;32476;50.002;11.854;2023-04-03T11:45:33;10.80;;;2.67;;
46729;SDS011;32476;50.002;11.854;2023-04-03T11:50:45;4.13;;;2.73;;
46729;SDS011;32476;50.002;11.854;2023-04-03T11:58:17;3.30;;;2.07;;
46729;SDS011;32476;50.002;11.854;2023-04-03T12:09:01;2.97;;;2.00;;
46729;SDS011;32476;50.002;11.854;2023-04-03T12:11:30;6.07;;;2.00;;
46729;SDS011;32476;50.002;11.854;2023-04-03T12:19:27;3.03;;;2.20;;
46729;SDS011;32476;50.002;11.854;2023-04-03T12:24:27;5.47;;;2.23;;
46729;SDS011;32476;50.002;11.854;2023-04-03T12:29:52;4.77;;;2.27;;
46729;SDS011;32476;50.002;11.854;2023-04-03T12:35:37;4.57;;;2.57;;
46729;SDS011;32476;50.002;11.854;2023-04-03T12:44:09;5.17;;;2.13;;
46729;SDS011;32476;50.002;11.854;2023-04-03T12:46:50;4.10;;;2.37;;
46729;SDS011;32476;50.002;11.854;2023-04-03T12:51:57;5.40;;;2.40;;
46729;SDS011;32476;50.002;11.854;2023-04-03T12:54:30;3.07;;;2.20;;
46729;SDS011;32476;50.002;11.854;2023-04-03T12:57:21;6.87;;;2.07;;
46729;SDS011;32476;50.002;11.854;2023-04-03T12:59:50;4.33;;;2.00;;
46729;SDS011;32476;50.002;11.854;2023-04-03T13:02:31;4.67;;;2.60;;
46729;SDS011;32476;50.002;11.854;2023-04-03T13:05:08;4.47;;;2.00;;
46729;SDS011;32476;50.002;11.854;2023-04-03T13:07:43;4.30;;;1.80;;
46729;SDS011;32476;50.002;11.854;2023-04-03T13:12:44;7.13;;;2.60;;
46729;SDS011;32476;50.002;11.854;2023-04-03T13:15:21;2.70;;;1.80;;
46729;SDS011;32476;50.002;11.854;2023-04-03T13:17:51;3.47;;;2.17;;
46729;SDS011;32476;50.002;11.854;2023-04-03T13:22:59;7.00;;;2.40;;
46729;SDS011;32476;50.002;11.854;2023-04-03T13:25:28;4.73;;;2.33;;
46729;SDS011;32476;50.002;11.854;2023-04-03T13:28:00;4.10;;;2.40;;
46729;SDS011;32476;50.002;11.854;2023-04-03T13:30:30;2.40;;;1.80;;
46729;SDS011;32476;50.002;11.854;2023-04-03T13:33:01;5.30;;;2.77;;
46729;SDS011;32476;50.002;11.854;2023-04-03T13:35:32;3.03;;;1.93;;
46729;SDS011;32476;50.002;11.854;2023-04-03T13:38:21;4.63;;;2.30;;
46729;SDS011;32476;50.002;11.854;2023-04-03T13:40:56;4.07;;;2.07;;
46729;SDS011;32476;50.002;11.854;2023-04-03T13:43:29;4.03;;;2.27;;
46729;SDS011;32476;50.002;11.854;2023-04-03T13:48:41;5.20;;;2.33;;
46729;SDS011;32476;50.002;11.854;2023-04-03T13:53:59;4.33;;;2.43;;
46729;SDS011;32476;50.002;11.854;2023-04-03T13:56:35;3.10;;;1.90;;
46729;SDS011;32476;50.002;11.854;2023-04-03T13:59:20;5.47;;;2.10;;
46729;SDS011;32476;50.002;11.854;2023-04-03T14:04:31;6.57;;;2.17;;
46729;SDS011;32476;50.002;11.854;2023-04-03T14:07:00;9.80;;;2.17;;
46729;SDS011;32476;50.002;11.854;2023-04-03T14:09:26;3.27;;;2.10;;
46729;SDS011;32476;50.002;11.854;2023-04-03T14:11:57;3.43;;;2.00;;
46729;SDS011;32476;50.002;11.854;2023-04-03T14:14:29;2.90;;;1.90;;
46729;SDS011;32476;50.002;11.854;2023-04-03T14:16:59;3.93;;;1.90;;
46729;SDS011;32476;50.002;11.854;2023-04-03T14:19:30;4.33;;;2.20;;
46729;SDS011;32476;50.002;11.854;2023-04-03T14:22:05;4.67;;;1.97;;
46729;SDS011;32476;50.002;11.854;2023-04-03T14:24:40;3.77;;;1.97;;
46729;SDS011;32476;50.002;11.854;2023-04-03T14:27:11;6.97;;;1.87;;
46729;SDS011;32476;50.002;11.854;2023-04-03T14:29:52;3.00;;;1.57;;
46729;SDS011;32476;50.002;11.854;2023-04-03T14:32:19;3.83;;;1.53;;
46729;SDS011;32476;50.002;11.854;2023-04-03T14:34:46;3.23;;;2.07;;
46729;SDS011;32476;50.002;11.854;2023-04-03T14:37:17;3.13;;;1.97;;
46729;SDS011;32476;50.002;11.854;2023-04-03T14:39:45;4.17;;;1.70;;
46729;SDS011;32476;50.002;11.854;2023-04-03T14:42:26;4.43;;;2.10;;
46729;SDS011;32476;50.002;11.854;2023-04-03T14:45:00;6.40;;;2.20;;
46729;SDS011;32476;50.002;11.854;2023-04-03T14:47:27;5.87;;;1.97;;
46729;SDS011;32476;50.002;11.854;2023-04-03T14:49:54;4.20;;;1.97;;
46729;SDS011;32476;50.002;11.854;2023-04-03T14:52:24;5.60;;;2.20;;
46729;SDS011;32476;50.002;11.854;2023-04-03T14:54:52;5.27;;;2.10;;
46729;SDS011;32476;50.002;11.854;2023-04-03T14:57:19;5.03;;;1.90;;
46729;SDS011;32476;50.002;11.854;2023-04-03T14:59:50;8.20;;;3.63;;
46729;SDS011;32476;50.002;11.854;2023-04-03T15:02:32;5.20;;;2.27;;
46729;SDS011;32476;50.002;11.854;2023-04-03T15:05:04;4.13;;;2.07;;
46729;SDS011;32476;50.002;11.854;2023-04-03T15:07:33;4.20;;;2.10;;
46729;SDS011;32476;50.002;11.854;2023-04-03T15:10:15;7.17;;;2.07;;
46729;SDS011;32476;50.002;11.854;2023-04-03T15:12:47;4.93;;;2.80;;
46729;SDS011;32476;50.002;11.854;2023-04-03T15:15:17;6.23;;;1.90;;
46729;SDS011;32476;50.002;11.854;2023-04-03T15:17:45;4.30;;;2.20;;
46729;SDS011;32476;50.002;11.854;2023-04-03T15:20:15;4.57;;;2.20;;
46729;SDS011;32476;50.002;11.854;2023-04-03T15:22:43;3.43;;;2.13;;
46729;SDS011;32476;50.002;11.854;2023-04-03T15:25:09;4.63;;;2.10;;
46729;SDS011;32476;50.002;11.854;2023-04-03T15:27:37;3.93;;;2.03;;
46729;SDS011;32476;50.002;11.854;2023-04-03T15:30:04;3.20;;;2.30;;
46729;SDS011;32476;50.002;11.854;2023-04-03T15:32:32;5.17;;;3.23;;
46729;SDS011;32476;50.002;11.854;2023-04-03T15:35:01;4.30;;;2.20;;
46729;SDS011;32476;50.002;11.854;2023-04-03T15:37:27;5.83;;;3.30;;
46729;SDS011;32476;50.002;11.854;2023-04-03T15:39:53;4.13;;;2.17;;
46729;SDS011;32476;50.002;11.854;2023-04-03T15:42:20;5.10;;;2.43;;
46729;SDS011;32476;50.002;11.854;2023-04-03T15:44:46;5.53;;;2.20;;
46729;SDS011;32476;50.002;11.854;2023-04-03T15:47:12;5.60;;;2.70;;
46729;SDS011;32476;50.002;11.854;2023-04-03T15:49:39;6.90;;;2.40;;
46729;SDS011;32476;50.002;11.854;2023-04-03T15:52:06;4.37;;;1.70;;
46729;SDS011;32476;50.002;11.854;2023-04-03T15:54:32;6.33;;;2.40;;
46729;SDS011;32476;50.002;11.854;2023-04-03T15:56:59;5.97;;;2.33;;
46729;SDS011;32476;50.002;11.854;2023-04-03T15:59:25;4.37;;;1.60;;
46729;SDS011;32476;50.002;11.854;2023-04-03T16:01:51;6.93;;;2.80;;
46729;SDS011;32476;50.002;11.854;2023-04-03T16:04:19;9.73;;;3.13;;
46729;SDS011;32476;50.002;11.854;2023-04-03T16:06:46;5.87;;;2.10;;
46729;SDS011;32476;50.002;11.854;2023-04-03T16:09:12;8.73;;;3.90;;
46729;SDS011;32476;50.002;11.854;2023-04-03T16:11:39;4.00;;;1.90;;
46729;SDS011;32476;50.002;11.854;2023-04-03T16:14:06;3.67;;;2.70;;
46729;SDS011;32476;50.002;11.854;2023-04-03T16:16:32;4.73;;;2.97;;
46729;SDS011;32476;50.002;11.854;2023-04-03T16:19:00;4.27;;;1.97;;
46729;SDS011;32476;50.002;11.854;2023-04-03T16:21:27;2.83;;;1.63;;
46729;SDS011;32476;50.002;11.854;2023-04-03T16:23:53;2.93;;;1.70;;
46729;SDS011;32476;50.002;11.854;2023-04-03T16:26:23;7.07;;;2.60;;
46729;SDS011;32476;50.002;11.854;2023-04-03T16:28:50;5.47;;;2.20;;
46729;SDS011;32476;50.002;11.854;2023-04-03T16:31:17;10.53;;;3.30;;
46729;SDS011;32476;50.002;11.854;2023-04-03T16:33:54;9.47;;;4.17;;
46729;SDS011;32476;50.002;11.854;2023-04-03T16:36:24;26.27;;;11.23;;
46729;SDS011;32476;50.002;11.854;2023-04-03T16:38:52;16.50;;;5.00;;
46729;SDS011;32476;50.002;11.854;2023-04-03T16:41:18;8.47;;;3.80;;
46729;SDS011;32476;50.002;11.854;2023-04-03T16:43:44;7.33;;;3.27;;
46729;SDS011;32476;50.002;11.854;2023-04-03T16:46:12;4.43;;;1.77;;
46729;SDS011;32476;50.002;11.854;2023-04-03T16:48:38;7.97;;;1.60;;
46729;SDS011;32476;50.002;11.854;2023-04-03T16:51:03;6.23;;;2.00;;